sensor_id;sensor_type;location;lat;lon;timestamp;P1;durP1;ratioP1;P2;durP2;ratioP2
9541;SDS011;4809;48.224;8.572;2023-04-26T00:02:08;3.42;;;3.13;;
9541;SDS011;4809;48.224;8.572;2023-04-26T00:04:35;3.60;;;3.30;;
9541;SDS011;4809;48.224;8.572;2023-04-26T00:07:01;4.47;;;3.90;;
9541;SDS011;4809;48.224;8.572;2023-04-26T00:09:27;4.88;;;3.95;;
9541;SDS011;4809;48.224;8.572;2023-04-26T00:11:53;4.60;;;3.60;;
9541;SDS011;4809;48.224;8.572;2023-04-26T00:14:19;5.32;;;4.00;;
9541;SDS011;4809;48.224;8.572;2023-04-26T00:16:45;5.55;;;4.45;;
9541;SDS011;4809;48.224;8.572;2023-04-26T00:19:10;6.35;;;4.57;;
9541;SDS011;4809;48.224;8.572;2023-04-26T00:21:36;6.20;;;4.63;;
9541;SDS011;4809;48.224;8.572;2023-04-26T00:24:03;7.35;;;4.80;;
9541;SDS011;4809;48.224;8.572;2023-04-26T00:26:29;6.70;;;5.10;;
9541;SDS011;4809;48.224;8.572;2023-04-26T00:28:56;6.50;;;5.10;;
9541;SDS011;4809;48.224;8.572;2023-04-26T00:31:21;5.50;;;4.50;;
9541;SDS011;4809;48.224;8.572;2023-04-26T00:33:47;5.65;;;4.40;;
9541;SDS011;4809;48.224;8.572;2023-04-26T00:36:13;5.95;;;5.18;;
9541;SDS011;4809;48.224;8.572;2023-04-26T00:38:39;10.73;;;8.10;;
9541;SDS011;4809;48.224;8.572;2023-04-26T00:41:05;9.90;;;8.25;;
9541;SDS011;4809;48.224;8.572;2023-04-26T00:43:31;8.25;;;6.50;;
9541;SDS011;4809;48.224;8.572;2023-04-26T00:45:56;6.68;;;5.63;;
9541;SDS011;4809;48.224;8.572;2023-04-26T00:48:22;7.88;;;6.03;;
9541;SDS011;4809;48.224;8.572;2023-04-26T00:50:48;8.07;;;5.38;;
9541;SDS011;4809;48.224;8.572;2023-04-26T00:53:14;7.63;;;5.53;;
9541;SDS011;4809;48.224;8.572;2023-04-26T00:55:41;6.72;;;5.40;;
9541;SDS011;4809;48.224;8.572;2023-04-26T00:58:07;7.18;;;5.32;;
9541;SDS011;4809;48.224;8.572;2023-04-26T01:00:33;7.20;;;5.57;;
9541;SDS011;4809;48.224;8.572;2023-04-26T01:02:58;8.50;;;5.85;;
9541;SDS011;4809;48.224;8.572;2023-04-26T01:05:24;7.70;;;5.72;;
9541;SDS011;4809;48.224;8.572;2023-04-26T01:07:50;7.35;;;6.00;;
9541;SDS011;4809;48.224;8.572;2023-04-26T01:10:16;7.82;;;5.90;;
9541;SDS011;4809;48.224;8.572;2023-04-26T01:12:42;8.10;;;6.20;;
9541;SDS011;4809;48.224;8.572;2023-04-26T01:15:08;8.77;;;5.75;;
9541;SDS011;4809;48.224;8.572;2023-04-26T01:17:35;7.90;;;6.60;;
9541;SDS011;4809;48.224;8.572;2023-04-26T01:20:02;7.38;;;6.15;;
9541;SDS011;4809;48.224;8.572;2023-04-26T01:22:32;7.20;;;6.07;;
9541;SDS011;4809;48.224;8.572;2023-04-26T01:24:58;7.95;;;5.95;;
9541;SDS011;4809;48.224;8.572;2023-04-26T01:27:25;9.48;;;6.22;;
9541;SDS011;4809;48.224;8.572;2023-04-26T01:29:50;9.57;;;6.28;;
9541;SDS011;4809;48.224;8.572;2023-04-26T01:32:16;8.70;;;6.63;;
9541;SDS011;4809;48.224;8.572;2023-04-26T01:34:42;8.48;;;6.32;;
9541;SDS011;4809;48.224;8.572;2023-04-26T01:37:07;9.40;;;6.47;;
9541;SDS011;4809;48.224;8.572;2023-04-26T01:39:33;9.85;;;6.68;;
9541;SDS011;4809;48.224;8.572;2023-04-26T01:42:00;8.98;;;6.70;;
9541;SDS011;4809;48.224;8.572;2023-04-26T01:44:26;9.02;;;6.90;;
9541;SDS011;4809;48.224;8.572;2023-04-26T01:46:52;8.63;;;6.35;;
9541;SDS011;4809;48.224;8.572;2023-04-26T01:49:18;7.45;;;5.85;;
9541;SDS011;4809;48.224;8.572;2023-04-26T01:51:43;8.32;;;6.30;;
9541;SDS011;4809;48.224;8.572;2023-04-26T01:54:09;10.75;;;7.35;;
9541;SDS011;4809;48.224;8.572;2023-04-26T01:56:35;10.23;;;6.88;;
9541;SDS011;4809;48.224;8.572;2023-04-26T01:59:00;8.88;;;6.25;;
9541;SDS011;4809;48.224;8.572;2023-04-26T02:01:26;8.38;;;6.47;;
9541;SDS011;4809;48.224;8.572;2023-04-26T02:03:52;7.85;;;6.20;;
9541;SDS011;4809;48.224;8.572;2023-04-26T02:06:17;7.68;;;5.57;;
9541;SDS011;4809;48.224;8.572;2023-04-26T02:08:43;9.65;;;6.00;;
9541;SDS011;4809;48.224;8.572;2023-04-26T02:11:09;8.15;;;6.13;;
9541;SDS011;4809;48.224;8.572;2023-04-26T02:13:35;7.55;;;5.70;;
9541;SDS011;4809;48.224;8.572;2023-04-26T02:16:01;8.70;;;6.22;;
9541;SDS011;4809;48.224;8.572;2023-04-26T02:18:27;9.20;;;6.40;;
9541;SDS011;4809;48.224;8.572;2023-04-26T02:20:53;10.02;;;6.47;;
9541;SDS011;4809;48.224;8.572;2023-04-26T02:23:19;7.57;;;5.68;;
9541;SDS011;4809;48.224;8.572;2023-04-26T02:25:45;7.85;;;6.15;;
9541;SDS011;4809;48.224;8.572;2023-04-26T02:28:12;10.25;;;6.47;;
9541;SDS011;4809;48.224;8.572;2023-04-26T02:30:40;9.35;;;6.35;;
9541;SDS011;4809;48.224;8.572;2023-04-26T02:33:06;7.53;;;5.70;;
9541;SDS011;4809;48.224;8.572;2023-04-26T02:35:32;8.15;;;5.55;;
9541;SDS011;4809;48.224;8.572;2023-04-26T02:37:59;6.38;;;5.18;;
9541;SDS011;4809;48.224;8.572;2023-04-26T02:40:24;6.43;;;5.13;;
9541;SDS011;4809;48.224;8.572;2023-04-26T02:42:50;7.55;;;5.20;;
9541;SDS011;4809;48.224;8.572;2023-04-26T02:45:15;6.60;;;5.13;;
9541;SDS011;4809;48.224;8.572;2023-04-26T02:47:41;7.63;;;5.38;;
9541;SDS011;4809;48.224;8.572;2023-04-26T02:50:07;7.38;;;5.68;;
9541;SDS011;4809;48.224;8.572;2023-04-26T02:52:34;7.90;;;5.50;;
9541;SDS011;4809;48.224;8.572;2023-04-26T02:55:00;7.77;;;5.33;;
9541;SDS011;4809;48.224;8.572;2023-04-26T02:57:30;8.43;;;6.03;;
9541;SDS011;4809;48.224;8.572;2023-04-26T02:59:56;10.18;;;6.90;;
9541;SDS011;4809;48.224;8.572;2023-04-26T03:02:22;10.85;;;7.07;;
9541;SDS011;4809;48.224;8.572;2023-04-26T03:04:47;10.68;;;7.00;;
9541;SDS011;4809;48.224;8.572;2023-04-26T03:07:13;10.00;;;6.38;;
9541;SDS011;4809;48.224;8.572;2023-04-26T03:09:39;9.23;;;6.28;;
9541;SDS011;4809;48.224;8.572;2023-04-26T03:12:05;8.67;;;6.30;;
9541;SDS011;4809;48.224;8.572;2023-04-26T03:14:31;8.68;;;6.13;;
9541;SDS011;4809;48.224;8.572;2023-04-26T03:16:58;9.82;;;7.32;;
9541;SDS011;4809;48.224;8.572;2023-04-26T03:19:24;10.38;;;7.30;;
9541;SDS011;4809;48.224;8.572;2023-04-26T03:21:50;13.32;;;7.90;;
9541;SDS011;4809;48.224;8.572;2023-04-26T03:24:15;10.65;;;7.40;;
9541;SDS011;4809;48.224;8.572;2023-04-26T03:26:41;9.57;;;7.28;;
9541;SDS011;4809;48.224;8.572;2023-04-26T03:29:07;9.75;;;6.90;;
9541;SDS011;4809;48.224;8.572;2023-04-26T03:31:33;9.02;;;6.82;;
9541;SDS011;4809;48.224;8.572;2023-04-26T03:33:58;10.10;;;7.28;;
9541;SDS011;4809;48.224;8.572;2023-04-26T03:36:24;9.97;;;7.07;;
9541;SDS011;4809;48.224;8.572;2023-04-26T03:38:52;10.85;;;7.85;;
9541;SDS011;4809;48.224;8.572;2023-04-26T03:41:18;10.07;;;7.50;;
9541;SDS011;4809;48.224;8.572;2023-04-26T03:43:44;11.52;;;8.13;;
9541;SDS011;4809;48.224;8.572;2023-04-26T03:46:09;10.88;;;8.32;;
9541;SDS011;4809;48.224;8.572;2023-04-26T03:48:35;12.77;;;7.95;;
9541;SDS011;4809;48.224;8.572;2023-04-26T03:51:01;10.82;;;7.72;;
9541;SDS011;4809;48.224;8.572;2023-04-26T03:53:27;10.18;;;7.55;;
9541;SDS011;4809;48.224;8.572;2023-04-26T03:55:52;10.52;;;7.30;;
9541;SDS011;4809;48.224;8.572;2023-04-26T03:58:18;12.95;;;7.15;;
9541;SDS011;4809;48.224;8.572;2023-04-26T04:00:43;9.40;;;7.15;;
9541;SDS011;4809;48.224;8.572;2023-04-26T04:03:10;9.50;;;6.95;;
9541;SDS011;4809;48.224;8.572;2023-04-26T04:05:36;9.85;;;7.07;;
9541;SDS011;4809;48.224;8.572;2023-04-26T04:08:01;11.77;;;7.68;;
9541;SDS011;4809;48.224;8.572;2023-04-26T04:10:28;10.07;;;7.38;;
9541;SDS011;4809;48.224;8.572;2023-04-26T04:12:53;12.02;;;7.65;;
9541;SDS011;4809;48.224;8.572;2023-04-26T04:15:19;12.30;;;9.73;;
9541;SDS011;4809;48.224;8.572;2023-04-26T04:17:45;14.13;;;10.60;;
9541;SDS011;4809;48.224;8.572;2023-04-26T04:20:11;12.80;;;9.25;;
9541;SDS011;4809;48.224;8.572;2023-04-26T04:22:37;12.63;;;8.30;;
9541;SDS011;4809;48.224;8.572;2023-04-26T04:25:06;9.32;;;7.20;;
9541;SDS011;4809;48.224;8.572;2023-04-26T04:27:34;13.32;;;8.10;;
9541;SDS011;4809;48.224;8.572;2023-04-26T04:30:01;10.60;;;8.07;;
9541;SDS011;4809;48.224;8.572;2023-04-26T04:32:29;9.93;;;7.50;;
9541;SDS011;4809;48.224;8.572;2023-04-26T04:34:56;10.02;;;7.45;;
9541;SDS011;4809;48.224;8.572;2023-04-26T04:37:23;10.60;;;7.90;;
9541;SDS011;4809;48.224;8.572;2023-04-26T04:39:50;11.13;;;7.57;;
9541;SDS011;4809;48.224;8.572;2023-04-26T04:42:16;13.15;;;9.90;;
9541;SDS011;4809;48.224;8.572;2023-04-26T04:44:42;11.40;;;8.40;;
9541;SDS011;4809;48.224;8.572;2023-04-26T04:47:09;10.80;;;7.55;;
9541;SDS011;4809;48.224;8.572;2023-04-26T04:49:35;8.52;;;6.78;;
9541;SDS011;4809;48.224;8.572;2023-04-26T04:52:02;10.10;;;6.80;;
9541;SDS011;4809;48.224;8.572;2023-04-26T04:54:28;9.32;;;6.85;;
9541;SDS011;4809;48.224;8.572;2023-04-26T04:56:53;12.45;;;7.28;;
9541;SDS011;4809;48.224;8.572;2023-04-26T04:59:19;10.90;;;7.43;;
9541;SDS011;4809;48.224;8.572;2023-04-26T05:01:45;11.68;;;7.60;;
9541;SDS011;4809;48.224;8.572;2023-04-26T05:04:10;11.47;;;7.53;;
9541;SDS011;4809;48.224;8.572;2023-04-26T05:06:36;12.65;;;9.23;;
9541;SDS011;4809;48.224;8.572;2023-04-26T05:09:02;14.50;;;11.35;;
9541;SDS011;4809;48.224;8.572;2023-04-26T05:11:29;13.77;;;8.75;;
9541;SDS011;4809;48.224;8.572;2023-04-26T05:13:56;11.45;;;8.10;;
9541;SDS011;4809;48.224;8.572;2023-04-26T05:16:22;11.02;;;8.10;;
9541;SDS011;4809;48.224;8.572;2023-04-26T05:18:48;11.20;;;8.32;;
9541;SDS011;4809;48.224;8.572;2023-04-26T05:21:14;12.40;;;8.05;;
9541;SDS011;4809;48.224;8.572;2023-04-26T05:23:39;12.70;;;7.80;;
9541;SDS011;4809;48.224;8.572;2023-04-26T05:26:06;11.77;;;7.90;;
9541;SDS011;4809;48.224;8.572;2023-04-26T05:28:32;9.02;;;7.55;;
9541;SDS011;4809;48.224;8.572;2023-04-26T05:30:58;10.23;;;7.88;;
9541;SDS011;4809;48.224;8.572;2023-04-26T05:33:25;12.07;;;8.02;;
9541;SDS011;4809;48.224;8.572;2023-04-26T05:35:54;9.85;;;7.70;;
9541;SDS011;4809;48.224;8.572;2023-04-26T05:38:22;16.33;;;12.20;;
9541;SDS011;4809;48.224;8.572;2023-04-26T05:40:47;21.05;;;15.80;;
9541;SDS011;4809;48.224;8.572;2023-04-26T05:43:13;12.13;;;9.38;;
9541;SDS011;4809;48.224;8.572;2023-04-26T05:45:39;13.95;;;10.38;;
9541;SDS011;4809;48.224;8.572;2023-04-26T05:48:04;12.13;;;9.30;;
9541;SDS011;4809;48.224;8.572;2023-04-26T05:50:30;11.98;;;8.45;;
9541;SDS011;4809;48.224;8.572;2023-04-26T05:52:56;12.73;;;8.32;;
9541;SDS011;4809;48.224;8.572;2023-04-26T05:55:22;11.75;;;8.82;;
9541;SDS011;4809;48.224;8.572;2023-04-26T05:57:48;12.68;;;9.02;;
9541;SDS011;4809;48.224;8.572;2023-04-26T06:00:14;11.23;;;7.97;;
9541;SDS011;4809;48.224;8.572;2023-04-26T06:02:40;18.80;;;14.68;;
9541;SDS011;4809;48.224;8.572;2023-04-26T06:05:06;20.65;;;14.52;;
9541;SDS011;4809;48.224;8.572;2023-04-26T06:07:33;15.43;;;11.35;;
9541;SDS011;4809;48.224;8.572;2023-04-26T06:10:01;12.50;;;9.73;;
9541;SDS011;4809;48.224;8.572;2023-04-26T06:12:27;11.25;;;8.10;;
9541;SDS011;4809;48.224;8.572;2023-04-26T06:14:53;12.00;;;7.63;;
9541;SDS011;4809;48.224;8.572;2023-04-26T06:17:18;9.85;;;6.93;;
9541;SDS011;4809;48.224;8.572;2023-04-26T06:19:44;12.27;;;7.65;;
9541;SDS011;4809;48.224;8.572;2023-04-26T06:22:10;9.25;;;7.55;;
9541;SDS011;4809;48.224;8.572;2023-04-26T06:24:36;10.32;;;7.57;;
9541;SDS011;4809;48.224;8.572;2023-04-26T06:27:01;8.90;;;7.18;;
9541;SDS011;4809;48.224;8.572;2023-04-26T06:29:29;9.13;;;7.13;;
9541;SDS011;4809;48.224;8.572;2023-04-26T06:31:56;11.55;;;7.28;;
9541;SDS011;4809;48.224;8.572;2023-04-26T06:34:22;10.95;;;7.65;;
9541;SDS011;4809;48.224;8.572;2023-04-26T06:36:48;11.15;;;7.30;;
9541;SDS011;4809;48.224;8.572;2023-04-26T06:39:13;12.30;;;7.70;;
9541;SDS011;4809;48.224;8.572;2023-04-26T06:41:39;9.43;;;7.20;;
9541;SDS011;4809;48.224;8.572;2023-04-26T06:44:05;13.43;;;7.55;;
9541;SDS011;4809;48.224;8.572;2023-04-26T06:46:31;10.52;;;7.65;;
9541;SDS011;4809;48.224;8.572;2023-04-26T06:48:56;8.63;;;6.70;;
9541;SDS011;4809;48.224;8.572;2023-04-26T06:51:22;11.98;;;8.85;;
9541;SDS011;4809;48.224;8.572;2023-04-26T06:53:48;10.90;;;7.93;;
9541;SDS011;4809;48.224;8.572;2023-04-26T06:56:13;10.68;;;7.45;;
9541;SDS011;4809;48.224;8.572;2023-04-26T06:58:41;9.35;;;7.28;;
9541;SDS011;4809;48.224;8.572;2023-04-26T07:01:21;12.27;;;7.82;;
9541;SDS011;4809;48.224;8.572;2023-04-26T07:03:47;9.93;;;8.30;;
9541;SDS011;4809;48.224;8.572;2023-04-26T07:06:13;10.52;;;8.30;;
9541;SDS011;4809;48.224;8.572;2023-04-26T07:08:38;9.55;;;7.88;;
9541;SDS011;4809;48.224;8.572;2023-04-26T07:11:08;10.43;;;7.70;;
9541;SDS011;4809;48.224;8.572;2023-04-26T07:13:34;9.68;;;7.85;;
9541;SDS011;4809;48.224;8.572;2023-04-26T07:16:00;11.82;;;8.98;;
9541;SDS011;4809;48.224;8.572;2023-04-26T07:18:25;11.80;;;8.00;;
9541;SDS011;4809;48.224;8.572;2023-04-26T07:20:51;10.48;;;7.07;;
9541;SDS011;4809;48.224;8.572;2023-04-26T07:23:17;12.73;;;7.93;;
9541;SDS011;4809;48.224;8.572;2023-04-26T07:25:42;10.05;;;7.47;;
9541;SDS011;4809;48.224;8.572;2023-04-26T07:28:08;9.13;;;6.65;;
9541;SDS011;4809;48.224;8.572;2023-04-26T07:30:33;8.40;;;7.03;;
9541;SDS011;4809;48.224;8.572;2023-04-26T07:32:59;10.02;;;6.80;;
9541;SDS011;4809;48.224;8.572;2023-04-26T07:35:26;8.50;;;5.55;;
9541;SDS011;4809;48.224;8.572;2023-04-26T07:37:51;9.30;;;6.65;;
9541;SDS011;4809;48.224;8.572;2023-04-26T07:40:17;8.18;;;6.65;;
9541;SDS011;4809;48.224;8.572;2023-04-26T07:42:43;8.85;;;6.78;;
9541;SDS011;4809;48.224;8.572;2023-04-26T07:45:10;9.73;;;6.30;;
9541;SDS011;4809;48.224;8.572;2023-04-26T07:47:36;10.45;;;7.88;;
9541;SDS011;4809;48.224;8.572;2023-04-26T07:50:02;10.23;;;7.00;;
9541;SDS011;4809;48.224;8.572;2023-04-26T07:52:28;10.43;;;7.30;;
9541;SDS011;4809;48.224;8.572;2023-04-26T07:54:53;8.20;;;6.63;;
9541;SDS011;4809;48.224;8.572;2023-04-26T07:57:19;7.22;;;6.22;;
9541;SDS011;4809;48.224;8.572;2023-04-26T07:59:45;7.90;;;6.18;;
9541;SDS011;4809;48.224;8.572;2023-04-26T08:02:10;10.13;;;6.88;;
9541;SDS011;4809;48.224;8.572;2023-04-26T08:04:36;8.65;;;6.78;;
9541;SDS011;4809;48.224;8.572;2023-04-26T08:07:02;8.27;;;6.85;;
9541;SDS011;4809;48.224;8.572;2023-04-26T08:09:28;10.88;;;7.18;;
9541;SDS011;4809;48.224;8.572;2023-04-26T08:11:54;9.85;;;7.10;;
9541;SDS011;4809;48.224;8.572;2023-04-26T08:14:20;7.28;;;5.88;;
9541;SDS011;4809;48.224;8.572;2023-04-26T08:16:46;10.20;;;7.43;;
9541;SDS011;4809;48.224;8.572;2023-04-26T08:19:12;7.50;;;5.60;;
9541;SDS011;4809;48.224;8.572;2023-04-26T08:21:37;7.35;;;5.63;;
9541;SDS011;4809;48.224;8.572;2023-04-26T08:24:03;6.03;;;5.30;;
9541;SDS011;4809;48.224;8.572;2023-04-26T08:26:29;5.68;;;4.53;;
9541;SDS011;4809;48.224;8.572;2023-04-26T08:28:55;6.32;;;4.80;;
9541;SDS011;4809;48.224;8.572;2023-04-26T08:31:21;7.05;;;5.15;;
9541;SDS011;4809;48.224;8.572;2023-04-26T08:33:47;8.05;;;5.60;;
9541;SDS011;4809;48.224;8.572;2023-04-26T08:36:12;7.82;;;5.20;;
9541;SDS011;4809;48.224;8.572;2023-04-26T08:38:38;7.63;;;5.40;;
9541;SDS011;4809;48.224;8.572;2023-04-26T08:41:04;5.90;;;4.47;;
9541;SDS011;4809;48.224;8.572;2023-04-26T08:43:30;5.68;;;4.63;;
9541;SDS011;4809;48.224;8.572;2023-04-26T08:45:59;9.20;;;6.60;;
9541;SDS011;4809;48.224;8.572;2023-04-26T08:48:25;10.32;;;6.10;;
9541;SDS011;4809;48.224;8.572;2023-04-26T08:50:54;6.25;;;4.28;;
9541;SDS011;4809;48.224;8.572;2023-04-26T08:53:20;4.93;;;3.22;;
9541;SDS011;4809;48.224;8.572;2023-04-26T08:55:47;4.50;;;3.78;;
9541;SDS011;4809;48.224;8.572;2023-04-26T08:58:13;5.55;;;4.00;;
9541;SDS011;4809;48.224;8.572;2023-04-26T09:00:41;12.93;;;8.98;;
9541;SDS011;4809;48.224;8.572;2023-04-26T09:03:09;6.47;;;4.50;;
9541;SDS011;4809;48.224;8.572;2023-04-26T09:05:35;5.25;;;4.45;;
9541;SDS011;4809;48.224;8.572;2023-04-26T09:08:02;5.72;;;4.78;;
9541;SDS011;4809;48.224;8.572;2023-04-26T09:10:31;8.00;;;5.55;;
9541;SDS011;4809;48.224;8.572;2023-04-26T09:12:57;7.85;;;5.00;;
9541;SDS011;4809;48.224;8.572;2023-04-26T09:15:23;6.95;;;5.03;;
9541;SDS011;4809;48.224;8.572;2023-04-26T09:17:50;5.65;;;4.45;;
9541;SDS011;4809;48.224;8.572;2023-04-26T09:22:45;5.88;;;4.20;;
9541;SDS011;4809;48.224;8.572;2023-04-26T09:25:12;5.80;;;4.07;;
9541;SDS011;4809;48.224;8.572;2023-04-26T09:27:42;6.15;;;4.10;;
9541;SDS011;4809;48.224;8.572;2023-04-26T09:30:10;5.40;;;4.85;;
9541;SDS011;4809;48.224;8.572;2023-04-26T09:40:30;6.32;;;4.38;;
9541;SDS011;4809;48.224;8.572;2023-04-26T09:43:05;7.60;;;5.20;;
9541;SDS011;4809;48.224;8.572;2023-04-26T09:45:33;5.35;;;4.40;;
9541;SDS011;4809;48.224;8.572;2023-04-26T09:48:13;7.65;;;4.38;;
9541;SDS011;4809;48.224;8.572;2023-04-26T09:50:50;6.05;;;4.63;;
9541;SDS011;4809;48.224;8.572;2023-04-26T09:53:30;12.55;;;7.38;;
9541;SDS011;4809;48.224;8.572;2023-04-26T09:56:19;12.75;;;8.55;;
9541;SDS011;4809;48.224;8.572;2023-04-26T10:01:10;6.07;;;4.60;;
9541;SDS011;4809;48.224;8.572;2023-04-26T10:03:38;4.43;;;4.03;;
9541;SDS011;4809;48.224;8.572;2023-04-26T10:06:06;5.22;;;4.20;;
9541;SDS011;4809;48.224;8.572;2023-04-26T10:08:32;4.60;;;3.85;;
9541;SDS011;4809;48.224;8.572;2023-04-26T10:10:59;7.90;;;5.88;;
9541;SDS011;4809;48.224;8.572;2023-04-26T10:13:26;6.75;;;4.60;;
9541;SDS011;4809;48.224;8.572;2023-04-26T10:15:52;4.43;;;4.00;;
9541;SDS011;4809;48.224;8.572;2023-04-26T10:18:18;6.38;;;4.35;;
9541;SDS011;4809;48.224;8.572;2023-04-26T10:20:45;4.82;;;3.90;;
9541;SDS011;4809;48.224;8.572;2023-04-26T10:23:19;5.30;;;3.97;;
9541;SDS011;4809;48.224;8.572;2023-04-26T10:25:46;5.68;;;3.95;;
9541;SDS011;4809;48.224;8.572;2023-04-26T10:28:13;5.15;;;3.88;;
9541;SDS011;4809;48.224;8.572;2023-04-26T10:30:52;4.60;;;4.15;;
9541;SDS011;4809;48.224;8.572;2023-04-26T10:33:22;5.32;;;4.07;;
9541;SDS011;4809;48.224;8.572;2023-04-26T10:41:43;6.32;;;3.92;;
9541;SDS011;4809;48.224;8.572;2023-04-26T10:47:01;4.97;;;3.60;;
9541;SDS011;4809;48.224;8.572;2023-04-26T10:49:28;4.05;;;3.65;;
9541;SDS011;4809;48.224;8.572;2023-04-26T10:52:14;4.95;;;3.70;;
9541;SDS011;4809;48.224;8.572;2023-04-26T10:54:51;5.78;;;3.80;;
9541;SDS011;4809;48.224;8.572;2023-04-26T10:57:18;4.80;;;3.58;;
9541;SDS011;4809;48.224;8.572;2023-04-26T11:02:58;6.68;;;4.93;;
9541;SDS011;4809;48.224;8.572;2023-04-26T11:10:38;4.07;;;3.42;;
9541;SDS011;4809;48.224;8.572;2023-04-26T11:13:04;5.22;;;3.70;;
9541;SDS011;4809;48.224;8.572;2023-04-26T11:15:31;6.45;;;3.80;;
9541;SDS011;4809;48.224;8.572;2023-04-26T11:17:57;4.05;;;3.40;;
9541;SDS011;4809;48.224;8.572;2023-04-26T11:20:27;5.43;;;3.85;;
9541;SDS011;4809;48.224;8.572;2023-04-26T11:22:55;5.18;;;3.70;;
9541;SDS011;4809;48.224;8.572;2023-04-26T11:25:21;6.20;;;3.67;;
9541;SDS011;4809;48.224;8.572;2023-04-26T11:27:56;5.80;;;3.60;;
9541;SDS011;4809;48.224;8.572;2023-04-26T11:30:27;4.78;;;3.55;;
9541;SDS011;4809;48.224;8.572;2023-04-26T11:32:53;4.30;;;3.80;;
9541;SDS011;4809;48.224;8.572;2023-04-26T11:35:20;6.25;;;3.80;;
9541;SDS011;4809;48.224;8.572;2023-04-26T11:37:47;5.45;;;3.80;;
9541;SDS011;4809;48.224;8.572;2023-04-26T11:40:15;6.28;;;3.60;;
9541;SDS011;4809;48.224;8.572;2023-04-26T11:42:42;4.93;;;3.47;;
9541;SDS011;4809;48.224;8.572;2023-04-26T11:45:09;5.15;;;3.35;;
9541;SDS011;4809;48.224;8.572;2023-04-26T11:47:35;4.60;;;3.30;;
9541;SDS011;4809;48.224;8.572;2023-04-26T11:50:01;3.58;;;3.17;;
9541;SDS011;4809;48.224;8.572;2023-04-26T11:52:27;4.78;;;3.38;;
9541;SDS011;4809;48.224;8.572;2023-04-26T11:55:03;4.13;;;3.10;;
9541;SDS011;4809;48.224;8.572;2023-04-26T11:57:33;4.65;;;3.33;;
9541;SDS011;4809;48.224;8.572;2023-04-26T12:00:14;4.65;;;3.28;;
9541;SDS011;4809;48.224;8.572;2023-04-26T12:02:43;5.43;;;3.33;;
9541;SDS011;4809;48.224;8.572;2023-04-26T12:05:23;6.13;;;3.70;;
9541;SDS011;4809;48.224;8.572;2023-04-26T12:07:53;3.63;;;3.03;;
9541;SDS011;4809;48.224;8.572;2023-04-26T12:10:23;5.30;;;3.30;;
9541;SDS011;4809;48.224;8.572;2023-04-26T12:12:50;3.95;;;3.20;;
9541;SDS011;4809;48.224;8.572;2023-04-26T12:15:18;3.78;;;3.08;;
9541;SDS011;4809;48.224;8.572;2023-04-26T12:18:20;4.72;;;3.63;;
9541;SDS011;4809;48.224;8.572;2023-04-26T12:20:40;4.80;;;3.60;;
9541;SDS011;4809;48.224;8.572;2023-04-26T12:23:06;5.00;;;3.72;;
9541;SDS011;4809;48.224;8.572;2023-04-26T12:25:52;5.28;;;3.67;;
9541;SDS011;4809;48.224;8.572;2023-04-26T12:28:19;5.18;;;3.70;;
9541;SDS011;4809;48.224;8.572;2023-04-26T12:30:45;5.30;;;3.63;;
9541;SDS011;4809;48.224;8.572;2023-04-26T12:33:11;4.97;;;3.85;;
9541;SDS011;4809;48.224;8.572;2023-04-26T12:35:37;4.22;;;3.38;;
9541;SDS011;4809;48.224;8.572;2023-04-26T12:38:03;5.70;;;3.60;;
9541;SDS011;4809;48.224;8.572;2023-04-26T12:40:29;4.47;;;3.33;;
9541;SDS011;4809;48.224;8.572;2023-04-26T12:42:56;5.68;;;3.13;;
9541;SDS011;4809;48.224;8.572;2023-04-26T12:45:23;3.45;;;3.15;;
9541;SDS011;4809;48.224;8.572;2023-04-26T12:47:50;3.70;;;3.30;;
9541;SDS011;4809;48.224;8.572;2023-04-26T12:50:17;4.28;;;3.13;;
9541;SDS011;4809;48.224;8.572;2023-04-26T12:52:43;3.53;;;3.03;;
9541;SDS011;4809;48.224;8.572;2023-04-26T12:55:10;5.43;;;2.80;;
9541;SDS011;4809;48.224;8.572;2023-04-26T12:57:37;3.78;;;3.15;;
9541;SDS011;4809;48.224;8.572;2023-04-26T13:00:04;4.82;;;3.30;;
9541;SDS011;4809;48.224;8.572;2023-04-26T13:02:33;3.72;;;3.03;;
9541;SDS011;4809;48.224;8.572;2023-04-26T13:05:00;3.40;;;3.10;;
9541;SDS011;4809;48.224;8.572;2023-04-26T13:07:29;3.95;;;3.15;;
9541;SDS011;4809;48.224;8.572;2023-04-26T13:09:59;3.00;;;2.70;;
9541;SDS011;4809;48.224;8.572;2023-04-26T13:12:25;3.58;;;3.10;;
9541;SDS011;4809;48.224;8.572;2023-04-26T13:14:51;5.45;;;3.40;;
9541;SDS011;4809;48.224;8.572;2023-04-26T13:17:17;5.00;;;4.05;;
9541;SDS011;4809;48.224;8.572;2023-04-26T13:19:43;5.53;;;3.30;;
9541;SDS011;4809;48.224;8.572;2023-04-26T13:22:11;3.42;;;2.97;;
9541;SDS011;4809;48.224;8.572;2023-04-26T13:24:37;3.17;;;2.67;;
9541;SDS011;4809;48.224;8.572;2023-04-26T13:27:03;3.38;;;2.85;;
9541;SDS011;4809;48.224;8.572;2023-04-26T13:29:29;2.40;;;2.20;;
9541;SDS011;4809;48.224;8.572;2023-04-26T13:31:56;3.60;;;2.50;;
9541;SDS011;4809;48.224;8.572;2023-04-26T13:34:23;3.15;;;2.85;;
9541;SDS011;4809;48.224;8.572;2023-04-26T13:36:50;5.38;;;4.45;;
9541;SDS011;4809;48.224;8.572;2023-04-26T13:39:16;3.92;;;3.20;;
9541;SDS011;4809;48.224;8.572;2023-04-26T13:41:42;3.47;;;2.90;;
9541;SDS011;4809;48.224;8.572;2023-04-26T13:44:08;5.53;;;4.20;;
9541;SDS011;4809;48.224;8.572;2023-04-26T13:46:34;4.63;;;3.83;;
9541;SDS011;4809;48.224;8.572;2023-04-26T13:49:00;3.58;;;2.80;;
9541;SDS011;4809;48.224;8.572;2023-04-26T13:51:25;4.75;;;4.25;;
9541;SDS011;4809;48.224;8.572;2023-04-26T13:53:54;3.10;;;2.70;;
9541;SDS011;4809;48.224;8.572;2023-04-26T13:56:20;3.35;;;3.00;;
9541;SDS011;4809;48.224;8.572;2023-04-26T13:58:46;2.95;;;2.35;;
9541;SDS011;4809;48.224;8.572;2023-04-26T14:01:12;5.75;;;3.60;;
9541;SDS011;4809;48.224;8.572;2023-04-26T14:03:38;2.20;;;2.10;;
9541;SDS011;4809;48.224;8.572;2023-04-26T14:06:05;3.65;;;2.53;;
9541;SDS011;4809;48.224;8.572;2023-04-26T14:08:31;3.20;;;2.40;;
9541;SDS011;4809;48.224;8.572;2023-04-26T14:10:57;3.65;;;2.70;;
9541;SDS011;4809;48.224;8.572;2023-04-26T14:13:23;4.40;;;3.30;;
9541;SDS011;4809;48.224;8.572;2023-04-26T14:15:49;2.72;;;2.53;;
9541;SDS011;4809;48.224;8.572;2023-04-26T14:18:15;3.17;;;2.40;;
9541;SDS011;4809;48.224;8.572;2023-04-26T14:20:41;2.70;;;2.50;;
9541;SDS011;4809;48.224;8.572;2023-04-26T14:23:06;2.40;;;2.20;;
9541;SDS011;4809;48.224;8.572;2023-04-26T14:25:32;2.60;;;2.40;;
9541;SDS011;4809;48.224;8.572;2023-04-26T14:27:58;2.92;;;2.30;;
9541;SDS011;4809;48.224;8.572;2023-04-26T14:30:24;2.80;;;2.13;;
9541;SDS011;4809;48.224;8.572;2023-04-26T14:32:49;2.63;;;2.28;;
9541;SDS011;4809;48.224;8.572;2023-04-26T14:35:15;3.10;;;2.58;;
9541;SDS011;4809;48.224;8.572;2023-04-26T14:37:41;2.85;;;2.30;;
9541;SDS011;4809;48.224;8.572;2023-04-26T14:40:07;2.58;;;2.30;;
9541;SDS011;4809;48.224;8.572;2023-04-26T14:42:33;2.97;;;2.25;;
9541;SDS011;4809;48.224;8.572;2023-04-26T14:44:58;5.22;;;4.70;;
9541;SDS011;4809;48.224;8.572;2023-04-26T14:47:24;3.58;;;2.50;;
9541;SDS011;4809;48.224;8.572;2023-04-26T14:49:51;2.83;;;2.13;;
9541;SDS011;4809;48.224;8.572;2023-04-26T14:52:16;4.20;;;2.28;;
9541;SDS011;4809;48.224;8.572;2023-04-26T14:54:42;2.53;;;2.03;;
9541;SDS011;4809;48.224;8.572;2023-04-26T14:57:08;6.32;;;3.55;;
9541;SDS011;4809;48.224;8.572;2023-04-26T14:59:34;4.10;;;2.70;;
9541;SDS011;4809;48.224;8.572;2023-04-26T15:02:00;3.92;;;2.60;;
9541;SDS011;4809;48.224;8.572;2023-04-26T15:04:26;8.10;;;5.53;;
9541;SDS011;4809;48.224;8.572;2023-04-26T15:06:52;50.33;;;34.65;;
9541;SDS011;4809;48.224;8.572;2023-04-26T15:09:18;10.32;;;4.28;;
9541;SDS011;4809;48.224;8.572;2023-04-26T15:11:43;3.05;;;2.45;;
9541;SDS011;4809;48.224;8.572;2023-04-26T15:14:09;17.02;;;4.55;;
9541;SDS011;4809;48.224;8.572;2023-04-26T15:16:35;4.47;;;2.53;;
9541;SDS011;4809;48.224;8.572;2023-04-26T15:19:00;2.30;;;2.10;;
9541;SDS011;4809;48.224;8.572;2023-04-26T15:21:26;2.72;;;2.20;;
9541;SDS011;4809;48.224;8.572;2023-04-26T15:23:53;2.03;;;1.88;;
9541;SDS011;4809;48.224;8.572;2023-04-26T15:26:20;4.32;;;2.38;;
9541;SDS011;4809;48.224;8.572;2023-04-26T15:28:47;2.40;;;2.10;;
9541;SDS011;4809;48.224;8.572;2023-04-26T15:31:13;3.00;;;2.20;;
9541;SDS011;4809;48.224;8.572;2023-04-26T15:33:38;2.40;;;2.08;;
9541;SDS011;4809;48.224;8.572;2023-04-26T15:36:04;2.15;;;2.05;;
9541;SDS011;4809;48.224;8.572;2023-04-26T15:38:32;2.50;;;2.28;;